EFMA

Mariehamn Airport

Finland
METAR EFMA 190050Z AUTO VRB01KT 5000 -SN OVC006 M01/M01 Q1027
Observed Flight Rules
Dec-19 @ 00:50 UTC (32 minutes ago) Instrument Flight Rules
Wind Visibility Clouds Conditions
Variable at 1 knots 5,005 meters
  • Overcast at 600' AGL
  • Light Snow
Temperatures Readings
Current -1°C / 30°F
Dewpoint -1°C / 30°F
Humidity 100%
Altimeter 30.32" Hg
Pressure 1027 hPa
Elevation 6
METAR EFMA 190050Z AUTO VRB01KT 5000 -SN OVC006 M01/M01 Q1027
Observed Flight Rules
Dec-19 @ 00:50 UTC
(32 minutes ago)
IFR
Wind Visibility
Variable at 1 knots 5,005 meters
Clouds
  • Overcast at 600' AGL
Conditions
  • Light Snow
Temperature Dewpoint
-1°C / 30°F -1°C / 30°F
Humidity Altimeter Pressure
100% 30.32" Hg 1027 hPa